Time;durP1;ratioP1;P1;durP2;ratioP2;P2;SDS_P1;SDS_P2;PMS_P1;PMS_P2;Temp;Humidity;BMP_temperature;BMP_pressure;BME280_temperature;BME280_humidity;BME280_pressure;Samples;Min_cycle;Max_cycle;Signal;HPM_P1;HPM_P2
2022/03/04 00:01:46;;;;;;;20.70;9.18;;;;;;;1.97;64.49;101857.09;5051269;28;20032;-76
2022/03/04 00:04:12;;;;;;;18.05;8.95;;;;;;;1.91;65.18;101856.69;5069279;28;20059;-76
2022/03/04 00:06:38;;;;;;;23.38;10.20;;;;;;;1.88;65.01;101857.75;5069422;28;20063;-76
2022/03/04 00:09:03;;;;;;;23.65;8.38;;;;;;;1.85;65.06;101858.00;5051049;28;20059;-76
2022/03/04 00:11:29;;;;;;;24.55;9.35;;;;;;;1.86;65.17;101861.44;5067519;28;20029;-76
2022/03/04 00:13:54;;;;;;;20.88;9.75;;;;;;;1.79;65.21;101865.53;5068897;28;20021;-76
2022/03/04 00:16:20;;;;;;;20.55;8.95;;;;;;;1.76;65.76;101866.59;5067820;28;20036;-76
2022/03/04 00:18:45;;;;;;;21.88;9.00;;;;;;;1.71;65.78;101866.91;5069105;28;20040;-76
2022/03/04 00:21:11;;;;;;;21.92;10.07;;;;;;;1.69;65.69;101866.19;5069073;28;20467;-76
2022/03/04 00:23:37;;;;;;;20.20;9.40;;;;;;;1.64;66.02;101862.22;5067703;28;20147;-76
2022/03/04 00:26:03;;;;;;;20.75;9.93;;;;;;;1.61;66.12;101865.91;5068950;28;20134;-76
2022/03/04 00:28:29;;;;;;;33.03;12.25;;;;;;;1.62;66.22;101864.97;5068998;28;20484;-76
2022/03/04 00:30:54;;;;;;;25.48;10.75;;;;;;;1.60;66.18;101877.41;5069081;28;20052;-76
2022/03/04 00:33:20;;;;;;;23.88;9.73;;;;;;;1.63;66.04;101881.59;5068947;28;20107;-76
2022/03/04 00:35:45;;;;;;;20.67;9.23;;;;;;;1.62;66.47;101879.91;5068831;28;20076;-77
2022/03/04 00:38:11;;;;;;;20.70;9.00;;;;;;;1.61;66.49;101883.50;5071876;28;20041;-77
2022/03/04 00:40:36;;;;;;;27.55;12.38;;;;;;;1.58;66.61;101887.19;5072580;28;20059;-76
2022/03/04 00:43:01;;;;;;;20.45;8.98;;;;;;;1.57;66.50;101885.50;5072656;28;20025;-76
2022/03/04 00:45:27;;;;;;;20.35;10.43;;;;;;;1.56;66.76;101880.34;5072106;28;20036;-76
2022/03/04 00:47:52;;;;;;;22.65;10.35;;;;;;;1.48;66.96;101878.28;5072456;28;20025;-76
2022/03/04 00:50:18;;;;;;;24.05;9.95;;;;;;;1.45;67.01;101868.00;5072449;28;20031;-76
2022/03/04 00:52:43;;;;;;;21.48;9.90;;;;;;;1.37;67.08;101868.56;5072330;28;20029;-76
2022/03/04 00:55:09;;;;;;;19.88;10.15;;;;;;;1.35;67.14;101882.75;5071152;28;20039;-76
2022/03/04 00:57:35;;;;;;;23.77;10.15;;;;;;;1.28;67.53;101874.47;5072868;28;20051;-76
2022/03/04 01:00:00;;;;;;;22.02;10.10;;;;;;;1.27;67.39;101883.31;5072916;28;20706;-77
2022/03/04 01:02:26;;;;;;;21.00;8.90;;;;;;;1.20;67.44;101875.03;5072060;28;20025;-76
2022/03/04 01:04:51;;;;;;;25.50;10.77;;;;;;;1.15;67.92;101873.69;5070928;28;20032;-76
2022/03/04 01:07:16;;;;;;;23.13;10.43;;;;;;;1.17;67.96;101877.03;5072037;28;20025;-76
2022/03/04 01:09:42;;;;;;;20.88;9.77;;;;;;;1.18;67.95;101890.06;5070796;28;20028;-76
2022/03/04 01:12:08;;;;;;;22.52;8.85;;;;;;;1.17;67.97;101882.28;5066651;28;20101;-76
2022/03/04 01:14:33;;;;;;;20.92;9.20;;;;;;;1.17;68.38;101887.53;5071499;28;20052;-76
2022/03/04 01:16:59;;;;;;;22.77;9.55;;;;;;;1.14;68.36;101882.53;5070253;28;20033;-76
2022/03/04 01:19:24;;;;;;;21.95;10.75;;;;;;;1.17;67.94;101887.53;5071178;28;20471;-76
2022/03/04 01:21:50;;;;;;;19.73;9.32;;;;;;;1.11;68.49;101888.00;5071282;28;20028;-76
2022/03/04 01:24:15;;;;;;;18.73;9.05;;;;;;;1.04;68.28;101882.31;5070094;28;20051;-76
2022/03/04 01:26:41;;;;;;;23.98;9.55;;;;;;;1.05;68.42;101879.59;5071136;28;20076;-76
2022/03/04 01:29:06;;;;;;;22.85;9.90;;;;;;;1.00;68.66;101875.63;5071693;28;20048;-76
2022/03/04 01:31:32;;;;;;;24.58;12.02;;;;;;;0.95;69.19;101886.44;5071458;28;20022;-76
2022/03/04 01:33:57;;;;;;;22.45;8.85;;;;;;;0.89;69.07;101871.09;5070766;28;20053;-76
2022/03/04 01:36:23;;;;;;;22.80;10.30;;;;;;;0.81;69.33;101863.81;5071596;28;20102;-76
2022/03/04 01:38:48;;;;;;;26.15;10.48;;;;;;;0.92;69.59;101884.06;5071547;28;20032;-76
2022/03/04 01:41:14;;;;;;;22.73;10.35;;;;;;;0.88;69.57;101880.78;5071357;28;20066;-76
2022/03/04 01:43:39;;;;;;;24.00;11.23;;;;;;;0.86;69.65;101879.22;5070886;28;20032;-76
2022/03/04 01:46:17;;;;;;;23.65;11.07;;;;;;;0.82;69.71;101867.25;5071450;28;20119;-76
2022/03/04 01:48:44;;;;;;;20.20;9.10;;;;;;;0.84;70.13;101879.34;5070775;28;20044;-76
2022/03/04 01:51:11;;;;;;;23.75;8.98;;;;;;;0.82;70.15;101880.38;5071257;28;20035;-76
2022/03/04 01:53:37;;;;;;;23.88;13.05;;;;;;;0.80;69.96;101882.28;5071196;28;20587;-76
2022/03/04 01:56:03;;;;;;;26.27;11.25;;;;;;;0.78;70.05;101895.50;5071184;28;20051;-76
2022/03/04 01:58:28;;;;;;;20.50;9.43;;;;;;;0.75;70.46;101892.25;5071286;28;20032;-76
2022/03/04 02:00:53;;;;;;;25.83;9.05;;;;;;;0.73;70.18;101889.72;5070719;28;20028;-76
2022/03/04 02:03:19;;;;;;;24.35;10.40;;;;;;;0.65;70.25;101881.56;5070562;28;20025;-76
2022/03/04 02:05:45;;;;;;;27.40;9.82;;;;;;;0.64;70.40;101879.88;5071049;28;20127;-76
2022/03/04 02:08:10;;;;;;;22.48;11.18;;;;;;;0.64;70.63;101885.13;5071077;28;20029;-76
2022/03/04 02:10:36;;;;;;;22.92;11.85;;;;;;;0.62;70.74;101881.78;5071056;28;20369;-76
2022/03/04 02:13:01;;;;;;;26.33;9.75;;;;;;;0.60;70.97;101881.03;5070859;28;20437;-76
2022/03/04 02:15:27;;;;;;;25.92;11.93;;;;;;;0.54;70.80;101881.47;5070819;28;20413;-76
2022/03/04 02:17:52;;;;;;;22.88;10.63;;;;;;;0.49;71.24;101879.16;5069149;28;20025;-76
2022/03/04 02:20:21;;;;;;;23.50;10.63;;;;;;;0.47;71.58;101880.19;5070283;28;20028;-76
2022/03/04 02:22:47;;;;;;;28.15;13.98;;;;;;;0.47;71.67;101885.44;5070580;28;20027;-76
2022/03/04 02:25:12;;;;;;;22.50;10.93;;;;;;;0.43;71.53;101879.59;5070445;28;20058;-76
2022/03/04 02:27:38;;;;;;;24.15;10.77;;;;;;;0.38;71.96;101885.13;5070764;28;20028;-76
2022/03/04 02:30:04;;;;;;;21.73;9.00;;;;;;;0.33;72.00;101878.53;5070542;28;20119;-76
2022/03/04 02:32:29;;;;;;;23.58;11.32;;;;;;;0.31;71.98;101880.41;5070489;28;20087;-76
2022/03/04 02:34:55;;;;;;;23.58;11.32;;;;;;;0.29;72.41;101875.28;5070065;28;20084;-76
2022/03/04 02:37:20;;;;;;;25.10;11.50;;;;;;;0.27;72.60;101881.56;5070439;28;20032;-76
2022/03/04 02:39:46;;;;;;;21.25;10.02;;;;;;;0.21;72.78;101867.09;5068966;28;20071;-76
2022/03/04 02:42:11;;;;;;;22.88;10.65;;;;;;;0.20;72.49;101866.22;5070321;28;20388;-76
2022/03/04 02:44:36;;;;;;;23.50;11.60;;;;;;;0.22;72.85;101868.78;5070439;28;20024;-76
2022/03/04 02:47:03;;;;;;;26.63;11.60;;;;;;;0.18;73.37;101867.28;5070554;28;20117;-76
2022/03/04 02:49:28;;;;;;;22.88;9.98;;;;;;;0.06;72.93;101850.59;5070272;28;20046;-76
2022/03/04 02:51:53;;;;;;;24.33;11.45;;;;;;;0.09;73.69;101865.28;5068398;28;20143;-76
2022/03/04 02:54:19;;;;;;;25.65;11.63;;;;;;;0.11;73.57;101872.13;5068686;28;20059;-76
2022/03/04 02:56:44;;;;;;;23.77;10.75;;;;;;;0.12;73.15;101867.72;5069861;28;20044;-76
2022/03/04 02:59:10;;;;;;;25.73;11.90;;;;;;;0.07;73.25;101865.38;5069364;28;20108;-76
2022/03/04 03:01:36;;;;;;;24.88;11.88;;;;;;;0.09;73.05;101865.28;5068639;28;20032;-76
2022/03/04 03:04:01;;;;;;;24.80;11.80;;;;;;;0.04;72.89;101867.38;5070174;28;20448;-76
2022/03/04 03:06:26;;;;;;;25.58;11.88;;;;;;;-0.02;73.55;101871.25;5068693;28;20048;-76
2022/03/04 03:08:52;;;;;;;24.40;11.63;;;;;;;-0.16;73.73;101856.44;5070062;28;20063;-76
2022/03/04 03:11:17;;;;;;;24.25;10.32;;;;;;;-0.19;73.82;101864.50;5069884;28;20399;-76
2022/03/04 03:13:43;;;;;;;25.98;11.68;;;;;;;-0.22;74.16;101873.41;5069753;28;20060;-76
2022/03/04 03:16:08;;;;;;;24.25;11.38;;;;;;;-0.29;74.18;101861.66;5068502;28;20043;-76
2022/03/04 03:18:34;;;;;;;22.67;11.43;;;;;;;-0.29;74.87;101874.78;5069745;28;20032;-76
2022/03/04 03:20:59;;;;;;;23.20;10.57;;;;;;;-0.27;74.33;101872.88;5068322;28;20029;-76
2022/03/04 03:23:24;;;;;;;27.23;13.75;;;;;;;-0.21;74.61;101869.00;5069743;28;20112;-76
2022/03/04 03:25:50;;;;;;;26.27;11.40;;;;;;;-0.19;74.40;101868.91;5068269;28;20049;-76
2022/03/04 03:28:15;;;;;;;24.48;10.52;;;;;;;-0.19;74.61;101877.63;5069630;28;20481;-76
2022/03/04 03:30:41;;;;;;;22.70;11.93;;;;;;;-0.16;74.22;101873.94;5069634;28;20040;-76
2022/03/04 03:33:06;;;;;;;26.73;12.98;;;;;;;-0.15;74.82;101870.41;5069451;28;20025;-76
2022/03/04 03:35:32;;;;;;;26.33;11.77;;;;;;;-0.16;74.87;101876.56;5069368;28;20131;-76
2022/03/04 03:37:57;;;;;;;23.60;11.35;;;;;;;-0.29;74.48;101856.44;5069836;28;20032;-76
2022/03/04 03:40:22;;;;;;;23.80;11.10;;;;;;;-0.16;74.75;101884.44;5069848;28;20063;-76
2022/03/04 03:42:48;;;;;;;24.80;11.77;;;;;;;-0.19;75.08;101879.41;5069338;28;20024;-76
2022/03/04 03:45:13;;;;;;;26.52;11.98;;;;;;;-0.19;74.76;101882.84;5069262;28;20029;-76
2022/03/04 03:47:40;;;;;;;23.83;11.48;;;;;;;-0.19;75.19;101879.41;5068013;28;20033;-76
2022/03/04 03:50:09;;;;;;;24.50;11.07;;;;;;;-0.16;75.16;101884.44;5069098;28;20039;-76
2022/03/04 03:52:35;;;;;;;23.58;12.80;;;;;;;-0.18;75.13;101876.69;5069417;28;20031;-76
2022/03/04 03:55:00;;;;;;;28.40;13.73;;;;;;;-0.17;74.97;101883.59;5069572;28;20495;-76
2022/03/04 03:57:26;;;;;;;26.08;12.35;;;;;;;-0.19;74.73;101880.22;5069045;28;20040;-76
2022/03/04 03:59:51;;;;;;;27.42;11.57;;;;;;;-0.23;75.19;101879.59;5067877;28;20086;-76
2022/03/04 04:02:16;;;;;;;25.98;14.07;;;;;;;-0.27;75.61;101877.28;5069335;28;20125;-76
2022/03/04 04:04:42;;;;;;;24.20;12.63;;;;;;;-0.32;75.38;101869.72;5067968;28;20024;-76
2022/03/04 04:07:09;;;;;;;26.20;12.68;;;;;;;-0.28;75.33;101892.19;5068041;28;20438;-76
2022/03/04 04:09:35;;;;;;;28.15;14.50;;;;;;;-0.32;75.43;101884.59;5069252;28;20028;-76
2022/03/04 04:12:01;;;;;;;29.70;13.15;;;;;;;-0.35;75.91;101896.13;5070826;28;20090;-76
2022/03/04 04:14:27;;;;;;;28.30;11.98;;;;;;;-0.31;76.05;101904.66;5073146;28;20020;-76
2022/03/04 04:16:53;;;;;;;26.90;12.75;;;;;;;-0.30;75.87;101908.94;5073046;28;20054;-76
2022/03/04 04:19:18;;;;;;;26.92;13.05;;;;;;;-0.30;75.84;101906.31;5073162;28;20305;-76
2022/03/04 04:21:44;;;;;;;26.33;14.88;;;;;;;-0.31;75.86;101902.03;5072649;28;20032;-76
2022/03/04 04:24:10;;;;;;;26.90;12.95;;;;;;;-0.31;75.83;101912.50;5073015;28;20031;-76
2022/03/04 04:26:36;;;;;;;28.95;12.85;;;;;;;-0.32;76.13;101908.19;5072744;28;20033;-76
2022/03/04 04:29:03;;;;;;;23.23;12.63;;;;;;;-0.33;75.81;101904.75;5071469;28;20115;-76
2022/03/04 04:31:28;;;;;;;29.40;14.05;;;;;;;-0.40;75.85;101900.81;5072761;28;20962;-76
2022/03/04 04:33:54;;;;;;;23.77;11.68;;;;;;;-0.38;76.26;101904.19;5073073;28;20107;-76
2022/03/04 04:36:19;;;;;;;26.15;13.02;;;;;;;-0.42;76.25;101904.47;5072931;28;20056;-76
2022/03/04 04:38:45;;;;;;;23.13;12.38;;;;;;;-0.51;76.30;101891.03;5072154;28;20036;-76
2022/03/04 04:41:11;;;;;;;26.50;12.75;;;;;;;-0.51;76.55;101900.69;5072266;28;20387;-76
2022/03/04 04:43:37;;;;;;;28.23;11.98;;;;;;;-0.56;76.62;101900.13;5072112;28;20448;-76
2022/03/04 04:46:04;;;;;;;25.83;12.23;;;;;;;-0.59;76.93;101906.41;5072540;28;20372;-76
2022/03/04 04:48:29;;;;;;;24.50;13.85;;;;;;;-0.62;76.86;101909.25;5072352;28;20028;-76
2022/03/04 04:50:55;;;;;;;25.05;12.60;;;;;;;-0.68;77.16;101899.16;5072638;28;20589;-76
2022/03/04 04:53:20;;;;;;;28.27;13.80;;;;;;;-0.69;76.89;101903.53;5054896;28;20034;-76
2022/03/04 04:55:46;;;;;;;24.88;13.10;;;;;;;-0.73;77.15;101898.63;5072310;28;20036;-76
2022/03/04 04:58:11;;;;;;;27.13;13.35;;;;;;;-0.73;77.80;101904.69;5072560;28;20492;-76
2022/03/04 05:00:36;;;;;;;25.27;11.68;;;;;;;-0.75;77.80;101901.31;5073223;28;20056;-76
2022/03/04 05:03:02;;;;;;;28.83;13.43;;;;;;;-0.78;77.17;101900.69;5072267;28;20464;-76
2022/03/04 05:05:27;;;;;;;33.35;14.35;;;;;;;-0.83;77.67;101900.97;5072273;28;20063;-76
2022/03/04 05:07:53;;;;;;;29.50;13.85;;;;;;;-0.83;77.52;101911.44;5070868;28;20032;-76
2022/03/04 05:10:18;;;;;;;25.17;12.50;;;;;;;-0.83;78.07;101905.38;5070821;28;20071;-76
2022/03/04 05:12:44;;;;;;;27.85;13.95;;;;;;;-0.82;78.24;101907.03;5072026;28;20050;-76
2022/03/04 05:15:10;;;;;;;28.88;14.63;;;;;;;-0.80;78.44;101902.53;5072082;28;20025;-76
2022/03/04 05:17:35;;;;;;;26.83;14.73;;;;;;;-0.80;78.01;101907.78;5071989;28;20119;-76
2022/03/04 05:20:01;;;;;;;26.27;13.52;;;;;;;-0.81;78.34;101908.69;5072156;28;20094;-76
2022/03/04 05:22:26;;;;;;;26.98;13.32;;;;;;;-0.82;78.51;101907.88;5071101;28;20063;-76
2022/03/04 05:24:52;;;;;;;28.20;13.75;;;;;;;-0.81;78.30;101908.69;5071843;28;20128;-76
2022/03/04 05:27:17;;;;;;;30.10;14.15;;;;;;;-0.80;78.97;101911.25;5070366;28;20032;-76
2022/03/04 05:29:43;;;;;;;28.02;13.40;;;;;;;-0.82;78.89;101912.28;5071796;28;20074;-76
2022/03/04 05:32:08;;;;;;;24.58;12.63;;;;;;;-0.77;78.43;101911.03;5070319;28;20028;-76
2022/03/04 05:34:34;;;;;;;28.17;12.82;;;;;;;-0.78;78.62;101909.38;5071567;28;20038;-76
2022/03/04 05:37:00;;;;;;;27.58;12.60;;;;;;;-0.76;78.80;101911.88;5070507;28;20055;-76
2022/03/04 05:39:26;;;;;;;31.55;13.75;;;;;;;-0.78;78.43;101908.53;5071063;28;20040;-75
2022/03/04 05:41:51;;;;;;;26.25;14.90;;;;;;;-0.78;79.32;101913.78;5069963;28;20400;-76
2022/03/04 05:44:17;;;;;;;29.40;15.70;;;;;;;-0.79;79.03;101910.28;5071215;28;20066;-76
2022/03/04 05:46:42;;;;;;;27.63;13.82;;;;;;;-0.78;79.24;101913.78;5071306;28;20024;-76
2022/03/04 05:49:07;;;;;;;29.40;15.00;;;;;;;-0.78;79.31;101924.25;5071388;28;20141;-76
2022/03/04 05:51:33;;;;;;;28.85;15.90;;;;;;;-0.80;79.37;101928.72;5071313;28;20032;-76
2022/03/04 05:53:59;;;;;;;29.35;16.42;;;;;;;-0.78;79.17;101937.34;5069947;28;20127;-76
2022/03/04 05:56:24;;;;;;;29.75;15.43;;;;;;;-0.80;80.15;101934.81;5070912;28;20044;-76
2022/03/04 05:58:50;;;;;;;31.10;15.98;;;;;;;-0.79;79.94;101938.25;5071264;28;20053;-75
2022/03/04 06:01:16;;;;;;;29.15;16.25;;;;;;;-0.80;80.01;101944.44;5071311;28;20391;-76
2022/03/04 06:03:41;;;;;;;28.55;12.98;;;;;;;-0.85;80.02;101936.88;5069788;28;20028;-76
2022/03/04 06:06:10;;;;;;;28.13;15.45;;;;;;;-0.91;80.21;101938.09;5071084;28;20039;-76
2022/03/04 06:08:36;;;;;;;31.48;15.27;;;;;;;-0.86;80.42;101956.16;5071032;28;20040;-76
2022/03/04 06:11:01;;;;;;;31.65;16.95;;;;;;;-0.92;80.43;101944.28;5070943;28;20437;-76
2022/03/04 06:13:26;;;;;;;29.40;13.80;;;;;;;-0.89;80.51;101953.72;5070743;28;20036;-76
2022/03/04 06:15:52;;;;;;;29.92;15.90;;;;;;;-0.94;80.79;101940.09;5070703;28;20025;-76
2022/03/04 06:18:17;;;;;;;29.98;15.45;;;;;;;-0.91;81.13;101945.97;5071123;28;20040;-76
2022/03/04 06:20:44;;;;;;;34.17;15.98;;;;;;;-0.96;81.10;101941.94;5071379;28;20479;-76
2022/03/04 06:23:09;;;;;;;28.45;14.98;;;;;;;-0.94;80.61;101940.09;5069118;28;20109;-76
2022/03/04 06:25:34;;;;;;;30.63;16.70;;;;;;;-0.98;80.81;101944.66;5070223;28;20024;-76
2022/03/04 06:28:02;;;;;;;32.45;15.35;;;;;;;-0.98;81.29;101947.25;5070569;28;20032;-76
2022/03/04 06:30:29;;;;;;;27.08;14.10;;;;;;;-0.94;81.18;101956.63;5070443;28;20166;-76
2022/03/04 06:33:30;;;;;;;30.85;14.90;;;;;;;-0.92;80.87;101960.00;5070451;28;20040;-76
2022/03/04 06:35:41;;;;;;;33.97;15.13;;;;;;;-0.87;81.03;101962.31;5068015;28;20056;-76
2022/03/04 06:38:07;;;;;;;29.92;16.45;;;;;;;-0.82;81.57;101959.41;5070169;28;20044;-76
2022/03/04 06:40:32;;;;;;;25.77;14.73;;;;;;;-0.82;81.40;101957.63;5068750;28;20037;-76
2022/03/04 06:42:57;;;;;;;32.08;17.23;;;;;;;-0.81;81.38;101954.09;5068889;28;20373;-76
2022/03/04 06:45:23;;;;;;;28.60;17.05;;;;;;;-0.82;81.32;101960.25;5069847;28;20375;-76
2022/03/04 06:47:48;;;;;;;25.90;14.02;;;;;;;-0.72;81.57;101965.75;5068507;28;20059;-76
2022/03/04 06:50:13;;;;;;;29.23;16.23;;;;;;;-0.49;81.20;101973.03;5070136;28;20032;-76
2022/03/04 06:52:39;;;;;;;33.20;17.05;;;;;;;-0.13;79.95;101966.38;5069698;28;20029;-76
2022/03/04 06:55:04;;;;;;;27.85;15.23;;;;;;;-0.01;79.51;101969.97;5069953;28;20489;-76
2022/03/04 06:57:30;;;;;;;29.73;15.10;;;;;;;0.07;78.44;101974.72;5068883;28;20063;-75
2022/03/04 06:59:55;;;;;;;28.73;14.82;;;;;;;-0.04;78.87;101968.38;5069712;28;20388;-75
2022/03/04 07:02:21;;;;;;;28.45;14.77;;;;;;;-0.04;79.30;101978.03;5068043;28;20024;-75
2022/03/04 07:04:46;;;;;;;31.70;16.95;;;;;;;0.02;79.25;101985.50;5069708;28;20024;-76
2022/03/04 07:07:12;;;;;;;30.48;16.20;;;;;;;0.44;78.54;101994.94;5069710;28;20032;-76
2022/03/04 07:09:37;;;;;;;31.42;14.98;;;;;;;0.91;76.62;101986.56;5069736;28;20029;-76
2022/03/04 07:12:03;;;;;;;33.50;16.75;;;;;;;1.01;75.91;101988.44;5051521;28;20052;-76
2022/03/04 07:14:28;;;;;;;33.63;15.40;;;;;;;1.06;75.35;101996.03;5069275;28;20028;-76
2022/03/04 07:16:53;;;;;;;27.85;14.25;;;;;;;0.99;75.65;101989.50;5069458;28;20032;-76
2022/03/04 07:19:19;;;;;;;31.80;16.67;;;;;;;0.85;75.17;101993.91;5068165;28;20033;-76
2022/03/04 07:21:44;;;;;;;33.40;16.10;;;;;;;0.77;75.85;101987.53;5068246;28;20039;-75
2022/03/04 07:24:09;;;;;;;31.45;17.23;;;;;;;0.80;76.05;101996.03;5068267;28;20066;-76
2022/03/04 07:26:35;;;;;;;35.80;17.27;;;;;;;0.74;75.79;102004.31;5068172;28;20032;-76
2022/03/04 07:29:00;;;;;;;33.67;17.40;;;;;;;0.70;76.59;102000.22;5069455;28;20028;-76
2022/03/04 07:31:25;;;;;;;28.05;13.80;;;;;;;0.83;76.01;102003.69;5069464;28;20478;-76
2022/03/04 07:33:51;;;;;;;30.88;16.20;;;;;;;0.90;75.80;102003.28;5069309;28;20464;-76
2022/03/04 07:36:16;;;;;;;33.90;15.52;;;;;;;0.86;75.60;102010.50;5069306;28;20052;-76
2022/03/04 07:38:44;;;;;;;34.05;16.17;;;;;;;0.81;75.98;102013.47;5069734;28;20029;-76
2022/03/04 07:41:09;;;;;;;27.75;13.65;;;;;;;0.83;75.85;102013.34;5051871;28;20040;-76
2022/03/04 07:43:35;;;;;;;33.70;18.15;;;;;;;0.87;76.21;102014.84;5069266;28;20028;-76
2022/03/04 07:46:00;;;;;;;29.65;16.67;;;;;;;1.00;76.06;102007.78;5068889;28;20028;-75
2022/03/04 07:48:27;;;;;;;32.13;16.60;;;;;;;1.20;75.33;102011.66;5067796;28;20040;-76
2022/03/04 07:50:53;;;;;;;28.85;16.17;;;;;;;1.30;74.42;102010.06;5067811;28;20032;-76
2022/03/04 07:53:18;;;;;;;31.02;15.60;;;;;;;1.46;74.59;102009.00;5069130;28;20093;-76
2022/03/04 07:55:44;;;;;;;31.30;15.43;;;;;;;1.66;73.84;102005.78;5067818;28;20456;-76
2022/03/04 07:58:09;;;;;;;31.08;15.23;;;;;;;2.07;72.64;102006.34;5068041;28;20068;-76
2022/03/04 08:00:35;;;;;;;29.30;16.38;;;;;;;2.33;71.62;102000.03;5069317;28;20025;-74
2022/03/04 08:03:01;;;;;;;29.40;15.68;;;;;;;2.55;70.66;102009.78;5068993;28;20029;-76
2022/03/04 08:05:26;;;;;;;31.55;15.35;;;;;;;2.72;70.13;102005.84;5051070;28;20041;-76
2022/03/04 08:07:52;;;;;;;28.02;12.80;;;;;;;3.06;68.37;102017.25;5069104;28;20119;-76
2022/03/04 08:10:17;;;;;;;29.17;14.70;;;;;;;3.17;67.99;102015.59;5069107;28;20572;-76
2022/03/04 08:12:43;;;;;;;26.55;13.05;;;;;;;3.38;67.23;102020.97;5069557;28;20425;-76
2022/03/04 08:15:10;;;;;;;23.98;12.85;;;;;;;3.38;66.83;102019.22;5068986;28;20028;-76
2022/03/04 08:17:37;;;;;;;31.63;13.98;;;;;;;3.45;66.32;102019.56;5069088;28;20032;-76
2022/03/04 08:20:04;;;;;;;30.50;13.60;;;;;;;3.58;65.97;102027.34;5068928;28;20036;-76
2022/03/04 08:22:29;;;;;;;30.75;14.77;;;;;;;3.51;65.27;102025.19;5068993;28;20089;-76
2022/03/04 08:24:55;;;;;;;29.92;13.75;;;;;;;3.36;66.16;102023.75;5068832;28;20041;-76
2022/03/04 08:27:21;;;;;;;31.52;14.85;;;;;;;3.25;67.51;102023.78;5068871;28;20182;-76
2022/03/04 08:29:47;;;;;;;31.83;15.00;;;;;;;3.18;67.33;102030.47;5068592;28;20504;-75
2022/03/04 08:32:12;;;;;;;26.15;13.95;;;;;;;3.12;67.53;102038.84;5068710;28;20063;-75
2022/03/04 08:34:37;;;;;;;27.58;12.80;;;;;;;3.00;67.82;102033.56;5068572;28;20033;-75
2022/03/04 08:37:03;;;;;;;24.17;12.52;;;;;;;2.99;68.54;102046.88;5067403;28;20488;-76
2022/03/04 08:39:29;;;;;;;31.40;14.65;;;;;;;2.99;68.39;102038.97;5068747;28;20032;-76
2022/03/04 08:41:54;;;;;;;26.27;12.80;;;;;;;3.03;67.81;102043.88;5068573;28;20467;-76
2022/03/04 08:44:20;;;;;;;25.48;13.73;;;;;;;3.07;68.00;102049.75;5068590;28;20543;-76
2022/03/04 08:46:45;;;;;;;29.75;14.48;;;;;;;3.12;68.14;102049.38;5068679;28;20032;-76
2022/03/04 08:49:10;;;;;;;26.23;14.73;;;;;;;3.18;67.48;102041.00;5068617;28;20024;-76
2022/03/04 08:51:37;;;;;;;28.58;14.38;;;;;;;3.29;68.84;102052.38;5066972;28;20028;-76
2022/03/04 08:54:03;;;;;;;26.67;12.90;;;;;;;3.44;67.68;102049.53;5068455;28;20031;-76
2022/03/04 08:56:29;;;;;;;26.40;12.02;;;;;;;3.53;67.17;102055.88;5067151;28;20040;-76
2022/03/04 08:58:54;;;;;;;26.60;13.23;;;;;;;3.59;66.58;102052.75;5070710;28;20093;-76
2022/03/04 09:01:20;;;;;;;26.55;12.70;;;;;;;3.63;65.48;102056.81;5072961;28;20117;-76
2022/03/04 09:03:45;;;;;;;25.88;12.88;;;;;;;3.75;66.79;102063.78;5054057;28;20092;-76
2022/03/04 09:06:11;;;;;;;25.42;12.43;;;;;;;3.86;66.77;102063.75;5072094;28;20028;-75
2022/03/04 09:08:36;;;;;;;28.05;12.98;;;;;;;4.00;66.52;102062.63;5070642;28;20432;-75
2022/03/04 09:11:02;;;;;;;25.92;12.73;;;;;;;4.03;65.31;102058.91;5071959;28;20021;-76
2022/03/04 09:13:27;;;;;;;27.58;12.20;;;;;;;4.16;65.43;102064.88;5071275;28;20035;-75
2022/03/04 09:15:53;;;;;;;26.42;13.57;;;;;;;4.26;65.13;102062.31;5071828;28;20082;-75
2022/03/04 09:18:18;;;;;;;29.60;15.00;;;;;;;4.42;64.96;102061.91;5071875;28;20895;-78
2022/03/04 09:20:44;;;;;;;29.67;13.60;;;;;;;4.57;63.49;102052.72;5071850;28;20368;-82
2022/03/04 09:23:09;;;;;;;24.88;13.65;;;;;;;4.70;61.54;102049.88;5068591;28;20028;-76
2022/03/04 09:25:34;;;;;;;29.27;14.55;;;;;;;4.76;61.83;102044.09;5065286;28;20032;-76
2022/03/04 09:28:02;;;;;;;25.20;13.43;;;;;;;4.83;61.54;102038.16;5066827;28;20235;-76
2022/03/04 09:30:28;;;;;;;27.05;11.65;;;;;;;4.92;61.36;102035.69;5067430;28;20028;-77
2022/03/04 09:32:53;;;;;;;26.10;15.05;;;;;;;5.05;61.51;102034.50;5056854;28;20471;-75
2022/03/04 09:35:19;;;;;;;26.15;12.68;;;;;;;5.11;59.90;102032.31;5070002;28;20135;-75
2022/03/04 09:37:45;;;;;;;27.55;12.73;;;;;;;5.11;61.32;102029.66;5071586;28;20027;-76
2022/03/04 09:40:11;;;;;;;28.17;13.30;;;;;;;5.21;60.29;102022.63;5071518;28;20062;-76
2022/03/04 09:42:37;;;;;;;22.98;11.85;;;;;;;5.35;61.76;102013.50;5071323;28;20035;-76
2022/03/04 09:45:03;;;;;;;24.88;12.75;;;;;;;5.46;60.82;102014.22;5069677;28;20365;-76
2022/03/04 09:47:30;;;;;;;26.70;13.35;;;;;;;5.60;60.07;102022.75;5069734;28;20048;-76
2022/03/04 09:49:57;;;;;;;25.38;14.00;;;;;;;5.71;60.80;102020.00;5069948;28;20491;-76
2022/03/04 09:52:23;;;;;;;27.73;16.80;;;;;;;5.84;58.95;102022.38;5070816;28;20400;-76
2022/03/04 09:54:50;;;;;;;30.17;13.75;;;;;;;5.90;57.37;102030.63;5071037;28;20032;-76
2022/03/04 09:57:16;;;;;;;26.60;13.25;;;;;;;5.98;58.12;102030.00;5071094;28;20038;-76
2022/03/04 09:59:43;;;;;;;27.23;13.95;;;;;;;6.12;59.97;102034.03;5071150;28;20115;-76
2022/03/04 10:02:14;;;;;;;31.48;14.68;;;;;;;6.24;56.28;102035.59;5069268;28;20384;-76
2022/03/04 10:04:41;;;;;;;25.27;13.15;;;;;;;6.34;57.35;102022.31;5070972;28;20115;-76
2022/03/04 10:07:13;;;;;;;28.33;13.85;;;;;;;6.35;56.17;102035.44;5071878;28;20024;-76
2022/03/04 10:09:46;;;;;;;29.13;13.30;;;;;;;6.29;56.51;102032.53;5070425;28;20039;-76
2022/03/04 10:12:14;;;;;;;26.27;12.63;;;;;;;6.34;56.01;102028.47;5069356;28;20369;-76
2022/03/04 10:14:59;;;;;;;25.52;12.88;;;;;;;6.42;57.03;102024.28;5069549;28;20392;-76
2022/03/04 10:17:25;;;;;;;40.40;13.85;;;;;;;6.53;56.01;102026.78;5071209;28;20429;-76
2022/03/04 10:19:57;;;;;;;25.25;13.45;;;;;;;6.56;56.22;102023.84;5071204;28;20036;-75
2022/03/04 10:22:34;;;;;;;29.67;13.07;;;;;;;6.58;55.71;102020.09;5069160;28;20074;-76
2022/03/04 10:25:00;;;;;;;27.95;13.45;;;;;;;6.61;54.51;102021.63;5070369;28;20898;-76
2022/03/04 10:27:32;;;;;;;25.52;12.50;;;;;;;6.64;55.01;102031.09;5070594;28;20035;-76
2022/03/04 10:29:58;;;;;;;26.60;12.65;;;;;;;6.71;53.71;102030.41;5070517;28;20209;-76
2022/03/04 10:32:26;;;;;;;23.42;11.38;;;;;;;6.76;56.63;102028.16;5070451;28;20120;-76
2022/03/04 10:34:54;;;;;;;30.52;11.88;;;;;;;6.88;54.71;102030.63;5070297;28;20032;-75
2022/03/04 10:37:52;;;;;;;25.27;11.68;;;;;;;6.98;55.38;102028.81;5070241;28;20494;-76
2022/03/04 10:40:22;;;;;;;30.90;14.82;;;;;;;6.98;53.69;102012.88;5069899;28;20652;-76
2022/03/04 10:42:53;;;;;;;26.75;13.70;;;;;;;7.07;54.18;102016.47;5070287;28;20024;-76
2022/03/04 10:45:32;;;;;;;25.88;12.25;;;;;;;7.23;55.11;102017.56;5070028;28;20475;-76
2022/03/04 10:48:07;;;;;;;27.27;14.63;;;;;;;7.33;52.03;102032.59;5070266;28;20032;-76
2022/03/04 10:50:34;;;;;;;26.50;12.45;;;;;;;7.36;55.18;102029.63;5070038;28;20387;-76
2022/03/04 10:53:07;;;;;;;23.60;12.50;;;;;;;7.44;52.77;102027.94;5069885;28;20098;-76
2022/03/04 10:55:49;;;;;;;24.88;11.80;;;;;;;7.51;53.76;102028.16;5069277;28;20029;-76
2022/03/04 10:58:16;;;;;;;24.63;11.70;;;;;;;7.61;52.72;102028.13;5069676;28;20020;-76
2022/03/04 11:00:44;;;;;;;25.45;12.85;;;;;;;7.67;52.58;102025.69;5069485;28;20024;-76
2022/03/04 11:03:15;;;;;;;26.88;13.27;;;;;;;7.77;54.33;102028.31;5069854;28;20032;-76
2022/03/04 11:05:41;;;;;;;26.63;13.50;;;;;;;7.89;52.43;102018.31;5069666;28;20082;-76
2022/03/04 11:08:08;;;;;;;26.15;12.90;;;;;;;7.99;53.09;102027.06;5069933;28;20024;-76
2022/03/04 11:10:34;;;;;;;27.33;14.50;;;;;;;8.04;50.84;102018.63;5068279;28;20027;-76